Norwegian Sun — C6RN3 — position and weather

sailwx.info

Track history (hours):
 
Tides and Currents Weather Stations Pressure Air Temp Water Temp Dewpoint Dewpoint Depression Visibility Wind Speed Wind Dir Waves Ship Positions

Norwegian Sun

Operator: Norwegian Cruise Line

Last reported at 2019-Aug-24 08:00 UTC. Time now 2019-Aug-24 20:03 UTC.
Position N 28°12' W 080°18'.

Type: Passenger vessel. MMSI: 311109000.

Wind from 180 at 5 knots

Barometer 1018.6 mb
Air temperature 26.0 ° C
Visibility: greater than 10.8 NM
Dewpoint 24.6 ° C
Water temperature 29.0 ° C

Date/timePositionNaut miles runAvg speedWind from/ knotsBaromVisibWave heightAir tempDewpointWater temp
2019-Aug-24 08:00N 28°12' W 080°18'8420.9 180 / 51018.610.8 26.024.629.0
2019-Aug-24 04:00N 27°00' W 079°30'157 6.6 100 / 251019.610.8 27.025.630.0
2019-Aug-23 04:00N 25°30' W 077°06'32 3.5 130 / 181022.610.8 27.024.130.0
2019-Aug-22 19:00N 25°00' W 077°18'63 4.2 200 / 81020.610.8 27.022.629.0
2019-Aug-22 04:00N 25°54' W 077°54'56 7.0 130 / 201022.610.8 27.022.630.0
2019-Aug-21 20:00N 26°30' W 078°42'35 4.5 230 / 51023.610.8 26.023.129.0
2019-Aug-21 12:09N 26°12' W 079°15'318.3
2019-Aug-21 12:00N 26°10' W 079°18'918.9
2019-Aug-21 11:30N 26°04' W 079°25'1019.6
2019-Aug-21 11:00N 25°55' W 079°31'1020.1
2019-Aug-21 10:30N 25°46' W 079°35'1020.5
2019-Aug-21 10:00N 25°36' W 079°39'1020.0
2019-Aug-21 09:30N 25°27' W 079°44'1020.8
2019-Aug-21 09:00N 25°18' W 079°48'84 4.7
2019-Aug-20 15:00N 24°24' W 081°00'6613.8 140 / 121022.610.8 29.023.230.0
2019-Aug-20 10:13N 25°06' W 080°04'314.2
2019-Aug-20 10:00N 25°09' W 080°03'714.1
2019-Aug-20 09:30N 25°15' W 079°60'713.8
2019-Aug-20 09:00N 25°22' W 079°57'713.8
2019-Aug-20 08:31N 25°28' W 079°56'714.2
2019-Aug-20 08:01N 25°36' W 079°57'714.4
2019-Aug-20 07:31N 25°43' W 079°57'714.9
2019-Aug-20 07:01N 25°50' W 079°57'714.9
2019-Aug-20 06:31N 25°58' W 079°58'714.5
2019-Aug-20 06:00N 26°05' W 079°58'815.4
2019-Aug-20 05:30N 26°13' W 079°58'816.1
2019-Aug-20 05:01N 26°21' W 079°57'816.0
2019-Aug-20 04:31N 26°29' W 079°56'816.0
2019-Aug-20 04:00N 26°37' W 079°55'815.5
2019-Aug-20 03:31N 26°44' W 079°53'815.3
2019-Aug-20 03:00N 26°52' W 079°52'815.7
2019-Aug-20 02:31N 26°59' W 079°50'815.4
2019-Aug-20 02:00N 27°07' W 079°51'87 9.6
2019-Aug-19 17:00N 28°24' W 080°36'248 6.5 050 / 51025.610.8 31.025.429.0
2019-Aug-18 03:00N 25°36' W 077°12'141 6.2 250 / 141023.610.8 28.026.629.0
2019-Aug-17 04:07N 26°55' W 079°22'315.8
2019-Aug-17 03:55N 26°57' W 079°24'715.4
2019-Aug-17 03:29N 27°03' W 079°28'102 6.1
2019-Aug-16 10:39N 28°25' W 080°38'153 3.3
2019-Aug-14 11:55N 26°10' W 079°15'922.4
2019-Aug-14 11:30N 26°05' W 079°23'1122.6
2019-Aug-14 11:00N 25°55' W 079°30'1224.0
2019-Aug-14 10:30N 25°44' W 079°36'1223.5
2019-Aug-14 10:00N 25°33' W 079°40'1223.4
2019-Aug-14 09:30N 25°23' W 079°45'  
Track history (hours):
 
Tides and Currents Weather Stations Pressure Air Temp Water Temp Dewpoint Dewpoint Depression Visibility Wind Speed Wind Dir Waves Ship Positions

Norwegian Sun

Operator: Norwegian Cruise Line

Last reported at 2019-Aug-24 08:00 UTC. Time now 2019-Aug-24 20:03 UTC.
Position N 28°12' W 080°18'.

Type: Passenger vessel. MMSI: 311109000.

Wind from 180 at 5 knots

Barometer 1018.6 mb
Air temperature 26.0 ° C
Visibility: greater than 10.8 NM
Dewpoint 24.6 ° C
Water temperature 29.0 ° C

Date/timePositionNaut miles runAvg speedWind from/ knotsBaromVisibWave heightAir tempDewpointWater temp
2019-Aug-24 08:00N 28°12' W 080°18'8420.9 180 / 51018.610.8 26.024.629.0
2019-Aug-24 04:00N 27°00' W 079°30'157 6.6 100 / 251019.610.8 27.025.630.0
2019-Aug-23 04:00N 25°30' W 077°06'32 3.5 130 / 181022.610.8 27.024.130.0
2019-Aug-22 19:00N 25°00' W 077°18'63 4.2 200 / 81020.610.8 27.022.629.0
2019-Aug-22 04:00N 25°54' W 077°54'56 7.0 130 / 201022.610.8 27.022.630.0
2019-Aug-21 20:00N 26°30' W 078°42'35 4.5 230 / 51023.610.8 26.023.129.0
2019-Aug-21 12:09N 26°12' W 079°15'318.3
2019-Aug-21 12:00N 26°10' W 079°18'918.9
2019-Aug-21 11:30N 26°04' W 079°25'1019.6
2019-Aug-21 11:00N 25°55' W 079°31'1020.1
2019-Aug-21 10:30N 25°46' W 079°35'1020.5
2019-Aug-21 10:00N 25°36' W 079°39'1020.0
2019-Aug-21 09:30N 25°27' W 079°44'1020.8
2019-Aug-21 09:00N 25°18' W 079°48'84 4.7
2019-Aug-20 15:00N 24°24' W 081°00'6613.8 140 / 121022.610.8 29.023.230.0
2019-Aug-20 10:13N 25°06' W 080°04'314.2
2019-Aug-20 10:00N 25°09' W 080°03'714.1
2019-Aug-20 09:30N 25°15' W 079°60'713.8
2019-Aug-20 09:00N 25°22' W 079°57'713.8
2019-Aug-20 08:31N 25°28' W 079°56'714.2
2019-Aug-20 08:01N 25°36' W 079°57'714.4
2019-Aug-20 07:31N 25°43' W 079°57'714.9
2019-Aug-20 07:01N 25°50' W 079°57'714.9
2019-Aug-20 06:31N 25°58' W 079°58'714.5
2019-Aug-20 06:00N 26°05' W 079°58'815.4
2019-Aug-20 05:30N 26°13' W 079°58'816.1
2019-Aug-20 05:01N 26°21' W 079°57'816.0
2019-Aug-20 04:31N 26°29' W 079°56'816.0
2019-Aug-20 04:00N 26°37' W 079°55'815.5
2019-Aug-20 03:31N 26°44' W 079°53'815.3
2019-Aug-20 03:00N 26°52' W 079°52'815.7
2019-Aug-20 02:31N 26°59' W 079°50'815.4
2019-Aug-20 02:00N 27°07' W 079°51'87 9.6
2019-Aug-19 17:00N 28°24' W 080°36'248 6.5 050 / 51025.610.8 31.025.429.0
2019-Aug-18 03:00N 25°36' W 077°12'141 6.2 250 / 141023.610.8 28.026.629.0
2019-Aug-17 04:07N 26°55' W 079°22'315.8
2019-Aug-17 03:55N 26°57' W 079°24'715.4
2019-Aug-17 03:29N 27°03' W 079°28'102 6.1
2019-Aug-16 10:39N 28°25' W 080°38'153 3.3
2019-Aug-14 11:55N 26°10' W 079°15'922.4
2019-Aug-14 11:30N 26°05' W 079°23'1122.6
2019-Aug-14 11:00N 25°55' W 079°30'1224.0
2019-Aug-14 10:30N 25°44' W 079°36'1223.5
2019-Aug-14 10:00N 25°33' W 079°40'1223.4
2019-Aug-14 09:30N 25°23' W 079°45'  

Dump ship's entire track history